sensor_id;sensor_type;location;lat;lon;timestamp;P1;durP1;ratioP1;P2;durP2;ratioP2
41099;SDS011;26844;53.686;-6.346;2022-07-23T00:00:14;5.20;;;2.00;;
41099;SDS011;26844;53.686;-6.346;2022-07-23T00:02:40;3.97;;;2.15;;
41099;SDS011;26844;53.686;-6.346;2022-07-23T00:05:05;3.70;;;1.73;;
41099;SDS011;26844;53.686;-6.346;2022-07-23T00:07:30;3.88;;;1.77;;
41099;SDS011;26844;53.686;-6.346;2022-07-23T00:09:56;2.30;;;1.92;;
41099;SDS011;26844;53.686;-6.346;2022-07-23T00:12:21;5.32;;;1.98;;
41099;SDS011;26844;53.686;-6.346;2022-07-23T00:14:46;4.43;;;2.17;;
41099;SDS011;26844;53.686;-6.346;2022-07-23T00:17:11;2.95;;;1.80;;
41099;SDS011;26844;53.686;-6.346;2022-07-23T00:19:37;4.30;;;2.10;;
41099;SDS011;26844;53.686;-6.346;2022-07-23T00:22:02;4.32;;;2.10;;
41099;SDS011;26844;53.686;-6.346;2022-07-23T00:24:27;3.28;;;2.17;;
41099;SDS011;26844;53.686;-6.346;2022-07-23T00:26:52;5.55;;;2.03;;
41099;SDS011;26844;53.686;-6.346;2022-07-23T00:29:18;3.33;;;1.90;;
41099;SDS011;26844;53.686;-6.346;2022-07-23T00:31:43;4.30;;;2.05;;
41099;SDS011;26844;53.686;-6.346;2022-07-23T00:34:08;3.25;;;1.75;;
41099;SDS011;26844;53.686;-6.346;2022-07-23T00:36:33;3.40;;;2.00;;
41099;SDS011;26844;53.686;-6.346;2022-07-23T00:38:59;4.13;;;1.98;;
41099;SDS011;26844;53.686;-6.346;2022-07-23T00:41:24;3.08;;;1.92;;
41099;SDS011;26844;53.686;-6.346;2022-07-23T00:43:49;4.25;;;2.10;;
41099;SDS011;26844;53.686;-6.346;2022-07-23T00:46:21;4.72;;;2.10;;
41099;SDS011;26844;53.686;-6.346;2022-07-23T00:48:46;4.00;;;1.95;;
41099;SDS011;26844;53.686;-6.346;2022-07-23T00:51:11;3.13;;;1.77;;
41099;SDS011;26844;53.686;-6.346;2022-07-23T00:53:36;2.25;;;2.00;;
41099;SDS011;26844;53.686;-6.346;2022-07-23T00:56:02;3.22;;;1.90;;
41099;SDS011;26844;53.686;-6.346;2022-07-23T00:58:27;2.58;;;1.90;;
41099;SDS011;26844;53.686;-6.346;2022-07-23T01:00:52;2.75;;;1.70;;
41099;SDS011;26844;53.686;-6.346;2022-07-23T01:03:18;4.70;;;1.92;;
41099;SDS011;26844;53.686;-6.346;2022-07-23T01:05:43;3.13;;;1.75;;
41099;SDS011;26844;53.686;-6.346;2022-07-23T01:08:09;3.50;;;1.80;;
41099;SDS011;26844;53.686;-6.346;2022-07-23T01:10:34;1.88;;;1.65;;
41099;SDS011;26844;53.686;-6.346;2022-07-23T01:13:06;4.53;;;2.17;;
41099;SDS011;26844;53.686;-6.346;2022-07-23T01:15:35;2.00;;;1.80;;
41099;SDS011;26844;53.686;-6.346;2022-07-23T01:18:01;2.88;;;2.15;;
41099;SDS011;26844;53.686;-6.346;2022-07-23T01:20:27;2.08;;;1.70;;
41099;SDS011;26844;53.686;-6.346;2022-07-23T01:22:52;2.85;;;1.80;;
41099;SDS011;26844;53.686;-6.346;2022-07-23T01:25:18;3.15;;;1.90;;
41099;SDS011;26844;53.686;-6.346;2022-07-23T01:27:43;3.15;;;1.67;;
41099;SDS011;26844;53.686;-6.346;2022-07-23T01:30:09;1.92;;;1.60;;
41099;SDS011;26844;53.686;-6.346;2022-07-23T01:32:34;3.47;;;1.77;;
41099;SDS011;26844;53.686;-6.346;2022-07-23T01:34:59;1.75;;;1.55;;
41099;SDS011;26844;53.686;-6.346;2022-07-23T01:37:25;2.55;;;1.77;;
41099;SDS011;26844;53.686;-6.346;2022-07-23T01:39:50;1.88;;;1.70;;
41099;SDS011;26844;53.686;-6.346;2022-07-23T01:42:15;4.10;;;2.03;;
41099;SDS011;26844;53.686;-6.346;2022-07-23T01:44:40;2.45;;;1.60;;
41099;SDS011;26844;53.686;-6.346;2022-07-23T01:47:06;1.52;;;1.38;;
41099;SDS011;26844;53.686;-6.346;2022-07-23T01:49:31;3.70;;;1.70;;
41099;SDS011;26844;53.686;-6.346;2022-07-23T01:51:56;2.97;;;1.75;;
41099;SDS011;26844;53.686;-6.346;2022-07-23T01:54:25;3.17;;;1.70;;
41099;SDS011;26844;53.686;-6.346;2022-07-23T01:56:50;2.08;;;1.83;;
41099;SDS011;26844;53.686;-6.346;2022-07-23T01:59:15;4.68;;;1.90;;
41099;SDS011;26844;53.686;-6.346;2022-07-23T02:01:41;3.40;;;2.13;;
41099;SDS011;26844;53.686;-6.346;2022-07-23T02:04:06;3.53;;;2.00;;
41099;SDS011;26844;53.686;-6.346;2022-07-23T02:06:31;3.08;;;2.05;;
41099;SDS011;26844;53.686;-6.346;2022-07-23T02:08:56;3.33;;;2.38;;
41099;SDS011;26844;53.686;-6.346;2022-07-23T02:11:21;5.18;;;2.05;;
41099;SDS011;26844;53.686;-6.346;2022-07-23T02:13:47;2.85;;;2.40;;
41099;SDS011;26844;53.686;-6.346;2022-07-23T02:16:12;4.35;;;2.33;;
41099;SDS011;26844;53.686;-6.346;2022-07-23T02:18:37;4.38;;;2.53;;
41099;SDS011;26844;53.686;-6.346;2022-07-23T02:21:02;3.05;;;1.95;;
41099;SDS011;26844;53.686;-6.346;2022-07-23T02:23:28;3.55;;;2.10;;
41099;SDS011;26844;53.686;-6.346;2022-07-23T02:25:53;4.55;;;2.00;;
41099;SDS011;26844;53.686;-6.346;2022-07-23T02:28:18;3.85;;;2.05;;
41099;SDS011;26844;53.686;-6.346;2022-07-23T02:30:44;2.85;;;2.58;;
41099;SDS011;26844;53.686;-6.346;2022-07-23T02:33:09;2.67;;;2.28;;
41099;SDS011;26844;53.686;-6.346;2022-07-23T02:35:34;2.92;;;2.30;;
41099;SDS011;26844;53.686;-6.346;2022-07-23T02:37:59;2.80;;;2.20;;
41099;SDS011;26844;53.686;-6.346;2022-07-23T02:40:25;2.90;;;2.17;;
41099;SDS011;26844;53.686;-6.346;2022-07-23T02:42:50;2.47;;;2.28;;
41099;SDS011;26844;53.686;-6.346;2022-07-23T02:45:15;4.28;;;2.33;;
41099;SDS011;26844;53.686;-6.346;2022-07-23T02:47:40;4.20;;;2.00;;
41099;SDS011;26844;53.686;-6.346;2022-07-23T02:50:06;3.13;;;2.15;;
41099;SDS011;26844;53.686;-6.346;2022-07-23T02:52:32;2.78;;;2.20;;
41099;SDS011;26844;53.686;-6.346;2022-07-23T02:54:57;2.60;;;2.40;;
41099;SDS011;26844;53.686;-6.346;2022-07-23T02:57:22;3.80;;;2.35;;
41099;SDS011;26844;53.686;-6.346;2022-07-23T02:59:47;3.42;;;1.98;;
41099;SDS011;26844;53.686;-6.346;2022-07-23T03:02:12;3.22;;;2.30;;
41099;SDS011;26844;53.686;-6.346;2022-07-23T03:04:38;2.65;;;2.42;;
41099;SDS011;26844;53.686;-6.346;2022-07-23T03:07:03;2.75;;;2.42;;
41099;SDS011;26844;53.686;-6.346;2022-07-23T03:09:28;4.25;;;2.78;;
41099;SDS011;26844;53.686;-6.346;2022-07-23T03:11:53;3.60;;;2.38;;
41099;SDS011;26844;53.686;-6.346;2022-07-23T03:14:19;3.25;;;2.80;;
41099;SDS011;26844;53.686;-6.346;2022-07-23T03:16:44;4.40;;;3.20;;
41099;SDS011;26844;53.686;-6.346;2022-07-23T03:19:09;5.97;;;3.15;;
41099;SDS011;26844;53.686;-6.346;2022-07-23T03:21:35;3.42;;;2.88;;
41099;SDS011;26844;53.686;-6.346;2022-07-23T03:24:04;3.70;;;3.40;;
41099;SDS011;26844;53.686;-6.346;2022-07-23T03:26:29;3.55;;;3.25;;
41099;SDS011;26844;53.686;-6.346;2022-07-23T03:28:54;4.97;;;2.90;;
41099;SDS011;26844;53.686;-6.346;2022-07-23T03:31:19;5.63;;;3.10;;
41099;SDS011;26844;53.686;-6.346;2022-07-23T03:33:45;5.18;;;3.35;;
41099;SDS011;26844;53.686;-6.346;2022-07-23T03:36:10;4.75;;;2.90;;
41099;SDS011;26844;53.686;-6.346;2022-07-23T03:38:35;5.35;;;3.10;;
41099;SDS011;26844;53.686;-6.346;2022-07-23T03:41:00;3.63;;;3.10;;
41099;SDS011;26844;53.686;-6.346;2022-07-23T03:43:26;3.38;;;3.05;;
41099;SDS011;26844;53.686;-6.346;2022-07-23T03:45:51;3.80;;;3.33;;
41099;SDS011;26844;53.686;-6.346;2022-07-23T03:48:16;5.60;;;3.40;;
41099;SDS011;26844;53.686;-6.346;2022-07-23T03:50:42;4.18;;;3.20;;
41099;SDS011;26844;53.686;-6.346;2022-07-23T03:53:07;5.75;;;3.17;;
41099;SDS011;26844;53.686;-6.346;2022-07-23T03:55:32;3.53;;;2.80;;
41099;SDS011;26844;53.686;-6.346;2022-07-23T03:57:57;4.22;;;3.25;;
41099;SDS011;26844;53.686;-6.346;2022-07-23T04:00:22;6.20;;;3.20;;
41099;SDS011;26844;53.686;-6.346;2022-07-23T04:02:48;5.18;;;2.70;;
41099;SDS011;26844;53.686;-6.346;2022-07-23T04:05:13;5.15;;;3.00;;
41099;SDS011;26844;53.686;-6.346;2022-07-23T04:07:38;4.15;;;2.90;;
41099;SDS011;26844;53.686;-6.346;2022-07-23T04:10:05;3.78;;;3.33;;
41099;SDS011;26844;53.686;-6.346;2022-07-23T04:12:30;3.55;;;3.10;;
41099;SDS011;26844;53.686;-6.346;2022-07-23T04:14:55;7.07;;;3.60;;
41099;SDS011;26844;53.686;-6.346;2022-07-23T04:17:21;4.47;;;3.63;;
41099;SDS011;26844;53.686;-6.346;2022-07-23T04:19:46;4.85;;;3.47;;
41099;SDS011;26844;53.686;-6.346;2022-07-23T04:22:11;6.15;;;3.97;;
41099;SDS011;26844;53.686;-6.346;2022-07-23T04:24:37;5.68;;;4.05;;
41099;SDS011;26844;53.686;-6.346;2022-07-23T04:27:02;8.10;;;4.50;;
41099;SDS011;26844;53.686;-6.346;2022-07-23T04:29:28;6.78;;;4.50;;
41099;SDS011;26844;53.686;-6.346;2022-07-23T04:31:53;5.50;;;4.50;;
41099;SDS011;26844;53.686;-6.346;2022-07-23T04:34:18;6.30;;;3.90;;
41099;SDS011;26844;53.686;-6.346;2022-07-23T04:36:43;8.27;;;4.80;;
41099;SDS011;26844;53.686;-6.346;2022-07-23T04:39:10;7.78;;;4.55;;
41099;SDS011;26844;53.686;-6.346;2022-07-23T04:41:35;5.38;;;4.88;;
41099;SDS011;26844;53.686;-6.346;2022-07-23T04:44:01;10.48;;;5.00;;
41099;SDS011;26844;53.686;-6.346;2022-07-23T04:46:26;4.90;;;4.18;;
41099;SDS011;26844;53.686;-6.346;2022-07-23T04:48:52;7.20;;;5.10;;
41099;SDS011;26844;53.686;-6.346;2022-07-23T04:51:18;9.00;;;4.88;;
41099;SDS011;26844;53.686;-6.346;2022-07-23T04:53:43;7.45;;;4.93;;
41099;SDS011;26844;53.686;-6.346;2022-07-23T04:56:08;8.07;;;5.22;;
41099;SDS011;26844;53.686;-6.346;2022-07-23T04:58:33;9.57;;;5.55;;
41099;SDS011;26844;53.686;-6.346;2022-07-23T05:00:59;7.05;;;4.97;;
41099;SDS011;26844;53.686;-6.346;2022-07-23T05:03:24;6.80;;;5.30;;
41099;SDS011;26844;53.686;-6.346;2022-07-23T05:05:49;11.82;;;5.38;;
41099;SDS011;26844;53.686;-6.346;2022-07-23T05:08:15;6.85;;;5.03;;
41099;SDS011;26844;53.686;-6.346;2022-07-23T05:10:40;6.70;;;5.32;;
41099;SDS011;26844;53.686;-6.346;2022-07-23T05:13:05;8.60;;;5.53;;
41099;SDS011;26844;53.686;-6.346;2022-07-23T05:15:30;9.23;;;4.88;;
41099;SDS011;26844;53.686;-6.346;2022-07-23T05:17:56;6.72;;;5.00;;
41099;SDS011;26844;53.686;-6.346;2022-07-23T05:20:21;6.13;;;4.47;;
41099;SDS011;26844;53.686;-6.346;2022-07-23T05:22:46;6.30;;;4.47;;
41099;SDS011;26844;53.686;-6.346;2022-07-23T05:25:11;5.38;;;4.43;;
41099;SDS011;26844;53.686;-6.346;2022-07-23T05:27:37;11.10;;;5.60;;
41099;SDS011;26844;53.686;-6.346;2022-07-23T05:30:02;7.43;;;4.85;;
41099;SDS011;26844;53.686;-6.346;2022-07-23T05:32:27;8.45;;;4.95;;
41099;SDS011;26844;53.686;-6.346;2022-07-23T05:34:53;6.68;;;4.85;;
41099;SDS011;26844;53.686;-6.346;2022-07-23T05:37:18;8.57;;;5.13;;
41099;SDS011;26844;53.686;-6.346;2022-07-23T05:39:43;8.88;;;5.78;;
41099;SDS011;26844;53.686;-6.346;2022-07-23T05:42:08;7.32;;;5.22;;
41099;SDS011;26844;53.686;-6.346;2022-07-23T05:44:35;9.32;;;5.32;;
41099;SDS011;26844;53.686;-6.346;2022-07-23T05:47:00;8.65;;;5.57;;
41099;SDS011;26844;53.686;-6.346;2022-07-23T05:49:25;8.13;;;5.82;;
41099;SDS011;26844;53.686;-6.346;2022-07-23T05:51:51;8.05;;;5.65;;
41099;SDS011;26844;53.686;-6.346;2022-07-23T05:54:16;8.93;;;5.78;;
41099;SDS011;26844;53.686;-6.346;2022-07-23T05:56:41;8.50;;;6.10;;
41099;SDS011;26844;53.686;-6.346;2022-07-23T05:59:06;10.13;;;6.15;;
41099;SDS011;26844;53.686;-6.346;2022-07-23T06:01:32;7.57;;;5.57;;
41099;SDS011;26844;53.686;-6.346;2022-07-23T06:03:57;6.00;;;5.30;;
41099;SDS011;26844;53.686;-6.346;2022-07-23T06:06:22;6.65;;;5.28;;
41099;SDS011;26844;53.686;-6.346;2022-07-23T06:08:47;9.50;;;6.10;;
41099;SDS011;26844;53.686;-6.346;2022-07-23T06:11:13;7.88;;;5.65;;
41099;SDS011;26844;53.686;-6.346;2022-07-23T06:13:38;7.57;;;5.20;;
41099;SDS011;26844;53.686;-6.346;2022-07-23T06:16:03;9.57;;;5.70;;
41099;SDS011;26844;53.686;-6.346;2022-07-23T06:18:28;6.65;;;5.32;;
41099;SDS011;26844;53.686;-6.346;2022-07-23T06:20:54;6.25;;;5.35;;
41099;SDS011;26844;53.686;-6.346;2022-07-23T06:23:19;8.07;;;5.70;;
41099;SDS011;26844;53.686;-6.346;2022-07-23T06:25:45;8.90;;;5.93;;
41099;SDS011;26844;53.686;-6.346;2022-07-23T06:28:10;7.70;;;5.93;;
41099;SDS011;26844;53.686;-6.346;2022-07-23T06:30:35;8.45;;;5.95;;
41099;SDS011;26844;53.686;-6.346;2022-07-23T06:33:00;9.90;;;6.20;;
41099;SDS011;26844;53.686;-6.346;2022-07-23T06:35:26;8.45;;;5.63;;
41099;SDS011;26844;53.686;-6.346;2022-07-23T06:37:51;9.82;;;5.85;;
41099;SDS011;26844;53.686;-6.346;2022-07-23T06:40:16;10.73;;;6.57;;
41099;SDS011;26844;53.686;-6.346;2022-07-23T06:42:41;7.35;;;6.28;;
41099;SDS011;26844;53.686;-6.346;2022-07-23T06:45:07;9.40;;;6.35;;
41099;SDS011;26844;53.686;-6.346;2022-07-23T06:47:32;7.53;;;5.85;;
41099;SDS011;26844;53.686;-6.346;2022-07-23T06:49:58;7.63;;;6.38;;
41099;SDS011;26844;53.686;-6.346;2022-07-23T06:52:23;7.88;;;6.07;;
41099;SDS011;26844;53.686;-6.346;2022-07-23T06:54:48;10.55;;;6.18;;
41099;SDS011;26844;53.686;-6.346;2022-07-23T06:57:14;8.00;;;6.40;;
41099;SDS011;26844;53.686;-6.346;2022-07-23T06:59:39;6.75;;;6.05;;
41099;SDS011;26844;53.686;-6.346;2022-07-23T07:02:06;8.30;;;6.40;;
41099;SDS011;26844;53.686;-6.346;2022-07-23T07:04:31;8.20;;;7.20;;
41099;SDS011;26844;53.686;-6.346;2022-07-23T07:06:57;8.60;;;7.00;;
41099;SDS011;26844;53.686;-6.346;2022-07-23T07:09:22;10.68;;;7.07;;
41099;SDS011;26844;53.686;-6.346;2022-07-23T07:11:47;10.18;;;6.85;;
41099;SDS011;26844;53.686;-6.346;2022-07-23T07:14:12;8.73;;;6.70;;
41099;SDS011;26844;53.686;-6.346;2022-07-23T07:16:38;7.15;;;6.10;;
41099;SDS011;26844;53.686;-6.346;2022-07-23T07:19:03;10.00;;;6.78;;
41099;SDS011;26844;53.686;-6.346;2022-07-23T07:21:28;10.25;;;7.90;;
41099;SDS011;26844;53.686;-6.346;2022-07-23T07:23:53;9.07;;;6.60;;
41099;SDS011;26844;53.686;-6.346;2022-07-23T07:26:19;8.63;;;5.80;;
41099;SDS011;26844;53.686;-6.346;2022-07-23T07:28:44;9.02;;;6.45;;
41099;SDS011;26844;53.686;-6.346;2022-07-23T07:31:09;8.73;;;6.50;;
41099;SDS011;26844;53.686;-6.346;2022-07-23T07:33:34;10.05;;;6.13;;
41099;SDS011;26844;53.686;-6.346;2022-07-23T07:36:00;8.32;;;6.38;;
41099;SDS011;26844;53.686;-6.346;2022-07-23T07:38:25;6.95;;;5.32;;
41099;SDS011;26844;53.686;-6.346;2022-07-23T07:40:51;6.93;;;5.55;;
41099;SDS011;26844;53.686;-6.346;2022-07-23T07:43:16;6.80;;;5.55;;
41099;SDS011;26844;53.686;-6.346;2022-07-23T07:45:41;8.23;;;6.60;;
41099;SDS011;26844;53.686;-6.346;2022-07-23T07:48:06;11.15;;;5.20;;
41099;SDS011;26844;53.686;-6.346;2022-07-23T07:50:32;6.38;;;5.45;;
41099;SDS011;26844;53.686;-6.346;2022-07-23T07:52:57;6.15;;;5.40;;
41099;SDS011;26844;53.686;-6.346;2022-07-23T07:55:22;7.13;;;5.90;;
41099;SDS011;26844;53.686;-6.346;2022-07-23T07:57:47;6.72;;;5.80;;
41099;SDS011;26844;53.686;-6.346;2022-07-23T08:00:12;5.97;;;5.38;;
41099;SDS011;26844;53.686;-6.346;2022-07-23T08:02:42;8.07;;;5.05;;
41099;SDS011;26844;53.686;-6.346;2022-07-23T08:05:07;7.70;;;5.25;;
41099;SDS011;26844;53.686;-6.346;2022-07-23T08:07:33;10.00;;;5.95;;
41099;SDS011;26844;53.686;-6.346;2022-07-23T08:09:58;7.30;;;5.35;;
41099;SDS011;26844;53.686;-6.346;2022-07-23T08:12:23;8.20;;;5.57;;
41099;SDS011;26844;53.686;-6.346;2022-07-23T08:14:48;10.35;;;5.95;;
41099;SDS011;26844;53.686;-6.346;2022-07-23T08:17:14;10.55;;;5.85;;
41099;SDS011;26844;53.686;-6.346;2022-07-23T08:19:39;8.15;;;5.90;;
41099;SDS011;26844;53.686;-6.346;2022-07-23T08:22:04;8.93;;;5.90;;
41099;SDS011;26844;53.686;-6.346;2022-07-23T08:24:29;9.73;;;6.43;;
41099;SDS011;26844;53.686;-6.346;2022-07-23T08:26:55;10.00;;;6.10;;
41099;SDS011;26844;53.686;-6.346;2022-07-23T08:29:20;8.32;;;6.03;;
41099;SDS011;26844;53.686;-6.346;2022-07-23T08:31:45;7.68;;;6.43;;
41099;SDS011;26844;53.686;-6.346;2022-07-23T08:34:10;9.15;;;5.72;;
41099;SDS011;26844;53.686;-6.346;2022-07-23T08:36:36;9.05;;;5.75;;
41099;SDS011;26844;53.686;-6.346;2022-07-23T08:39:01;6.78;;;6.03;;
41099;SDS011;26844;53.686;-6.346;2022-07-23T08:41:28;6.80;;;6.07;;
41099;SDS011;26844;53.686;-6.346;2022-07-23T08:43:53;10.70;;;6.25;;
41099;SDS011;26844;53.686;-6.346;2022-07-23T08:46:19;8.68;;;5.30;;
41099;SDS011;26844;53.686;-6.346;2022-07-23T08:48:45;7.18;;;5.68;;
41099;SDS011;26844;53.686;-6.346;2022-07-23T08:51:12;7.07;;;5.45;;
41099;SDS011;26844;53.686;-6.346;2022-07-23T08:53:37;7.13;;;4.70;;
41099;SDS011;26844;53.686;-6.346;2022-07-23T08:56:04;8.02;;;5.85;;
41099;SDS011;26844;53.686;-6.346;2022-07-23T08:58:30;7.53;;;5.80;;
41099;SDS011;26844;53.686;-6.346;2022-07-23T09:00:55;8.18;;;6.10;;
41099;SDS011;26844;53.686;-6.346;2022-07-23T09:03:24;6.10;;;5.47;;
41099;SDS011;26844;53.686;-6.346;2022-07-23T09:05:50;6.13;;;5.38;;
41099;SDS011;26844;53.686;-6.346;2022-07-23T09:08:16;7.53;;;5.50;;
41099;SDS011;26844;53.686;-6.346;2022-07-23T09:13:17;8.55;;;5.60;;
41099;SDS011;26844;53.686;-6.346;2022-07-23T09:15:50;7.75;;;5.03;;
41099;SDS011;26844;53.686;-6.346;2022-07-23T09:18:15;6.10;;;4.95;;
41099;SDS011;26844;53.686;-6.346;2022-07-23T09:20:41;7.18;;;5.18;;
41099;SDS011;26844;53.686;-6.346;2022-07-23T09:23:06;36.85;;;8.88;;
41099;SDS011;26844;53.686;-6.346;2022-07-23T09:25:31;53.55;;;40.58;;
41099;SDS011;26844;53.686;-6.346;2022-07-23T09:27:57;6.38;;;5.28;;
41099;SDS011;26844;53.686;-6.346;2022-07-23T09:30:26;10.93;;;5.10;;
41099;SDS011;26844;53.686;-6.346;2022-07-23T09:33:05;7.28;;;5.43;;
41099;SDS011;26844;53.686;-6.346;2022-07-23T09:35:51;7.88;;;5.90;;
41099;SDS011;26844;53.686;-6.346;2022-07-23T09:38:17;8.93;;;5.53;;
41099;SDS011;26844;53.686;-6.346;2022-07-23T09:40:43;7.35;;;5.47;;
41099;SDS011;26844;53.686;-6.346;2022-07-23T09:43:08;7.90;;;5.70;;
41099;SDS011;26844;53.686;-6.346;2022-07-23T09:45:34;9.20;;;5.80;;
41099;SDS011;26844;53.686;-6.346;2022-07-23T09:48:15;7.63;;;5.68;;
41099;SDS011;26844;53.686;-6.346;2022-07-23T09:50:42;11.40;;;6.60;;
41099;SDS011;26844;53.686;-6.346;2022-07-23T09:53:07;8.82;;;6.45;;
41099;SDS011;26844;53.686;-6.346;2022-07-23T09:55:33;8.30;;;5.97;;
41099;SDS011;26844;53.686;-6.346;2022-07-23T09:58:03;11.65;;;6.78;;
41099;SDS011;26844;53.686;-6.346;2022-07-23T10:00:28;15.70;;;7.03;;
41099;SDS011;26844;53.686;-6.346;2022-07-23T10:02:54;9.95;;;7.55;;
41099;SDS011;26844;53.686;-6.346;2022-07-23T10:05:20;11.20;;;7.68;;
41099;SDS011;26844;53.686;-6.346;2022-07-23T10:07:45;14.38;;;7.82;;
41099;SDS011;26844;53.686;-6.346;2022-07-23T10:10:10;13.32;;;7.65;;
41099;SDS011;26844;53.686;-6.346;2022-07-23T10:12:36;8.32;;;6.97;;
41099;SDS011;26844;53.686;-6.346;2022-07-23T10:15:22;9.40;;;7.10;;
41099;SDS011;26844;53.686;-6.346;2022-07-23T10:17:48;18.40;;;7.60;;
41099;SDS011;26844;53.686;-6.346;2022-07-23T10:20:13;9.23;;;6.95;;
41099;SDS011;26844;53.686;-6.346;2022-07-23T10:22:40;12.77;;;7.50;;
41099;SDS011;26844;53.686;-6.346;2022-07-23T10:27:44;10.73;;;7.07;;
41099;SDS011;26844;53.686;-6.346;2022-07-23T10:40:37;7.93;;;6.25;;
41099;SDS011;26844;53.686;-6.346;2022-07-23T10:43:17;9.68;;;5.78;;
41099;SDS011;26844;53.686;-6.346;2022-07-23T10:45:43;10.52;;;6.00;;
41099;SDS011;26844;53.686;-6.346;2022-07-23T10:50:39;10.00;;;6.75;;
41099;SDS011;26844;53.686;-6.346;2022-07-23T10:57:56;11.52;;;6.13;;
41099;SDS011;26844;53.686;-6.346;2022-07-23T11:00:25;10.30;;;6.45;;
41099;SDS011;26844;53.686;-6.346;2022-07-23T11:02:55;15.07;;;6.65;;
41099;SDS011;26844;53.686;-6.346;2022-07-23T11:05:21;9.27;;;5.50;;
41099;SDS011;26844;53.686;-6.346;2022-07-23T11:10:39;9.02;;;5.30;;
41099;SDS011;26844;53.686;-6.346;2022-07-23T11:31:54;2.63;;;2.28;;
41099;SDS011;26844;53.686;-6.346;2022-07-23T11:39:23;5.27;;;2.17;;
41099;SDS011;26844;53.686;-6.346;2022-07-23T11:41:50;3.75;;;2.05;;
41099;SDS011;26844;53.686;-6.346;2022-07-23T11:44:31;2.38;;;1.70;;
41099;SDS011;26844;53.686;-6.346;2022-07-23T11:46:58;2.75;;;1.30;;
41099;SDS011;26844;53.686;-6.346;2022-07-23T11:49:25;2.00;;;1.40;;
41099;SDS011;26844;53.686;-6.346;2022-07-23T11:54:31;2.47;;;1.02;;
41099;SDS011;26844;53.686;-6.346;2022-07-23T11:56:59;1.15;;;1.00;;
41099;SDS011;26844;53.686;-6.346;2022-07-23T11:59:28;2.03;;;0.90;;
41099;SDS011;26844;53.686;-6.346;2022-07-23T12:01:56;0.93;;;0.70;;
41099;SDS011;26844;53.686;-6.346;2022-07-23T12:04:21;1.90;;;1.02;;
41099;SDS011;26844;53.686;-6.346;2022-07-23T12:06:47;1.20;;;1.05;;
41099;SDS011;26844;53.686;-6.346;2022-07-23T12:09:12;1.27;;;0.77;;
41099;SDS011;26844;53.686;-6.346;2022-07-23T12:11:37;2.53;;;1.00;;
41099;SDS011;26844;53.686;-6.346;2022-07-23T12:14:02;3.58;;;1.00;;
41099;SDS011;26844;53.686;-6.346;2022-07-23T12:16:27;1.85;;;0.68;;
41099;SDS011;26844;53.686;-6.346;2022-07-23T12:18:53;2.17;;;1.02;;
41099;SDS011;26844;53.686;-6.346;2022-07-23T12:21:18;0.93;;;0.70;;
41099;SDS011;26844;53.686;-6.346;2022-07-23T12:23:46;1.83;;;1.35;;
41099;SDS011;26844;53.686;-6.346;2022-07-23T12:26:13;1.20;;;1.10;;
41099;SDS011;26844;53.686;-6.346;2022-07-23T12:28:38;3.13;;;1.30;;
41099;SDS011;26844;53.686;-6.346;2022-07-23T12:31:04;2.58;;;1.60;;
41099;SDS011;26844;53.686;-6.346;2022-07-23T12:33:34;2.38;;;1.70;;
41099;SDS011;26844;53.686;-6.346;2022-07-23T12:36:03;3.13;;;1.83;;
41099;SDS011;26844;53.686;-6.346;2022-07-23T12:38:37;2.47;;;2.13;;
41099;SDS011;26844;53.686;-6.346;2022-07-23T12:41:02;2.92;;;2.25;;
41099;SDS011;26844;53.686;-6.346;2022-07-23T12:43:30;6.13;;;1.98;;
41099;SDS011;26844;53.686;-6.346;2022-07-23T12:46:01;2.67;;;2.20;;
41099;SDS011;26844;53.686;-6.346;2022-07-23T12:50:56;5.78;;;2.45;;
41099;SDS011;26844;53.686;-6.346;2022-07-23T12:55:47;2.78;;;2.40;;
41099;SDS011;26844;53.686;-6.346;2022-07-23T12:58:14;3.97;;;2.35;;
41099;SDS011;26844;53.686;-6.346;2022-07-23T13:05:47;2.20;;;2.00;;
41099;SDS011;26844;53.686;-6.346;2022-07-23T13:08:12;3.15;;;1.92;;
41099;SDS011;26844;53.686;-6.346;2022-07-23T13:10:38;1.92;;;1.83;;
41099;SDS011;26844;53.686;-6.346;2022-07-23T13:13:07;2.63;;;1.63;;
41099;SDS011;26844;53.686;-6.346;2022-07-23T13:15:32;3.95;;;1.38;;
41099;SDS011;26844;53.686;-6.346;2022-07-23T13:17:58;1.70;;;1.58;;
41099;SDS011;26844;53.686;-6.346;2022-07-23T13:20:23;3.10;;;1.70;;
41099;SDS011;26844;53.686;-6.346;2022-07-23T13:22:48;4.10;;;1.30;;
41099;SDS011;26844;53.686;-6.346;2022-07-23T13:25:13;4.93;;;1.58;;
41099;SDS011;26844;53.686;-6.346;2022-07-23T13:27:38;4.28;;;1.58;;
41099;SDS011;26844;53.686;-6.346;2022-07-23T13:30:04;1.65;;;1.25;;
41099;SDS011;26844;53.686;-6.346;2022-07-23T13:32:29;1.88;;;1.58;;
41099;SDS011;26844;53.686;-6.346;2022-07-23T13:34:54;2.08;;;1.20;;
41099;SDS011;26844;53.686;-6.346;2022-07-23T13:37:20;3.17;;;1.27;;
41099;SDS011;26844;53.686;-6.346;2022-07-23T13:39:45;1.77;;;1.20;;
41099;SDS011;26844;53.686;-6.346;2022-07-23T13:42:10;2.05;;;1.33;;
41099;SDS011;26844;53.686;-6.346;2022-07-23T13:44:35;1.70;;;1.50;;
41099;SDS011;26844;53.686;-6.346;2022-07-23T13:47:00;1.30;;;1.20;;
41099;SDS011;26844;53.686;-6.346;2022-07-23T13:49:26;2.75;;;1.30;;
41099;SDS011;26844;53.686;-6.346;2022-07-23T13:51:51;2.33;;;1.10;;
41099;SDS011;26844;53.686;-6.346;2022-07-23T13:54:16;1.50;;;1.38;;
41099;SDS011;26844;53.686;-6.346;2022-07-23T13:56:41;2.97;;;1.40;;
41099;SDS011;26844;53.686;-6.346;2022-07-23T13:59:07;2.28;;;1.13;;
41099;SDS011;26844;53.686;-6.346;2022-07-23T14:01:32;1.90;;;1.40;;
41099;SDS011;26844;53.686;-6.346;2022-07-23T14:03:58;6.47;;;1.10;;
41099;SDS011;26844;53.686;-6.346;2022-07-23T14:06:23;1.63;;;1.10;;
41099;SDS011;26844;53.686;-6.346;2022-07-23T14:08:48;4.15;;;1.33;;
41099;SDS011;26844;53.686;-6.346;2022-07-23T14:11:13;2.25;;;1.20;;
41099;SDS011;26844;53.686;-6.346;2022-07-23T14:13:39;1.98;;;1.13;;
41099;SDS011;26844;53.686;-6.346;2022-07-23T14:16:04;1.77;;;0.95;;
41099;SDS011;26844;53.686;-6.346;2022-07-23T14:18:29;1.95;;;1.10;;
41099;SDS011;26844;53.686;-6.346;2022-07-23T14:20:54;4.07;;;1.23;;
41099;SDS011;26844;53.686;-6.346;2022-07-23T14:23:20;3.53;;;1.30;;
41099;SDS011;26844;53.686;-6.346;2022-07-23T14:25:45;2.42;;;1.13;;
41099;SDS011;26844;53.686;-6.346;2022-07-23T14:28:10;1.95;;;1.17;;
41099;SDS011;26844;53.686;-6.346;2022-07-23T14:30:36;3.47;;;1.00;;
41099;SDS011;26844;53.686;-6.346;2022-07-23T14:33:02;3.42;;;1.45;;
41099;SDS011;26844;53.686;-6.346;2022-07-23T14:35:27;3.38;;;1.20;;
41099;SDS011;26844;53.686;-6.346;2022-07-23T14:37:52;3.47;;;1.17;;
41099;SDS011;26844;53.686;-6.346;2022-07-23T14:40:17;2.50;;;1.30;;
41099;SDS011;26844;53.686;-6.346;2022-07-23T14:42:43;153.88;;;11.63;;
41099;SDS011;26844;53.686;-6.346;2022-07-23T14:45:08;39.45;;;36.72;;
41099;SDS011;26844;53.686;-6.346;2022-07-23T14:47:33;668.88;;;541.60;;
41099;SDS011;26844;53.686;-6.346;2022-07-23T14:49:59;1954.10;;;885.20;;
41099;SDS011;26844;53.686;-6.346;2022-07-23T14:52:24;1999.90;;;944.75;;
41099;SDS011;26844;53.686;-6.346;2022-07-23T14:54:49;1148.50;;;471.00;;
41099;SDS011;26844;53.686;-6.346;2022-07-23T14:57:15;1587.82;;;779.00;;
41099;SDS011;26844;53.686;-6.346;2022-07-23T14:59:40;1196.88;;;551.08;;
41099;SDS011;26844;53.686;-6.346;2022-07-23T15:02:07;1.20;;;1.10;;
41099;SDS011;26844;53.686;-6.346;2022-07-23T15:04:32;2.83;;;0.88;;
41099;SDS011;26844;53.686;-6.346;2022-07-23T15:06:57;1.52;;;0.82;;
41099;SDS011;26844;53.686;-6.346;2022-07-23T15:09:24;1.40;;;0.82;;
41099;SDS011;26844;53.686;-6.346;2022-07-23T15:11:49;1.57;;;0.93;;
41099;SDS011;26844;53.686;-6.346;2022-07-23T15:14:14;2.47;;;0.85;;
41099;SDS011;26844;53.686;-6.346;2022-07-23T15:16:39;0.70;;;0.70;;
41099;SDS011;26844;53.686;-6.346;2022-07-23T15:19:05;1.35;;;0.88;;
41099;SDS011;26844;53.686;-6.346;2022-07-23T15:21:30;0.57;;;0.57;;
41099;SDS011;26844;53.686;-6.346;2022-07-23T15:23:56;1.65;;;0.80;;